sensor_id;sensor_type;location;lat;lon;timestamp;pressure;altitude;pressure_sealevel;temperature;humidity
740;BME280;354;42.694;23.336;2023-03-03T00:01:29;95353.13;;;5.47;100.00
740;BME280;354;42.694;23.336;2023-03-03T00:03:56;95353.16;;;5.62;100.00
740;BME280;354;42.694;23.336;2023-03-03T00:06:22;95350.38;;;5.63;100.00
740;BME280;354;42.694;23.336;2023-03-03T00:08:49;95346.47;;;5.44;100.00
740;BME280;354;42.694;23.336;2023-03-03T00:11:14;95352.50;;;5.60;100.00
740;BME280;354;42.694;23.336;2023-03-03T00:13:51;95344.06;;;5.58;100.00
740;BME280;354;42.694;23.336;2023-03-03T00:16:37;95325.94;;;5.41;100.00
740;BME280;354;42.694;23.336;2023-03-03T00:19:12;95338.09;;;5.49;100.00
740;BME280;354;42.694;23.336;2023-03-03T00:21:44;95351.41;;;5.54;100.00
740;BME280;354;42.694;23.336;2023-03-03T00:27:00;95339.22;;;5.32;100.00
740;BME280;354;42.694;23.336;2023-03-03T00:29:36;95346.41;;;5.29;100.00
740;BME280;354;42.694;23.336;2023-03-03T00:32:26;95342.59;;;5.40;100.00
740;BME280;354;42.694;23.336;2023-03-03T00:35:00;95332.56;;;5.29;100.00
740;BME280;354;42.694;23.336;2023-03-03T00:37:34;95326.75;;;5.42;100.00
740;BME280;354;42.694;23.336;2023-03-03T00:42:55;95329.97;;;5.44;100.00
740;BME280;354;42.694;23.336;2023-03-03T00:48:26;95318.91;;;5.42;100.00
740;BME280;354;42.694;23.336;2023-03-03T00:50:57;95313.38;;;5.45;100.00
740;BME280;354;42.694;23.336;2023-03-03T00:53:25;95311.91;;;5.42;100.00
740;BME280;354;42.694;23.336;2023-03-03T00:55:51;95307.97;;;5.46;100.00
740;BME280;354;42.694;23.336;2023-03-03T00:58:17;95299.94;;;5.48;100.00
740;BME280;354;42.694;23.336;2023-03-03T01:00:46;95298.75;;;5.36;100.00
740;BME280;354;42.694;23.336;2023-03-03T01:03:15;95292.66;;;5.28;100.00
740;BME280;354;42.694;23.336;2023-03-03T01:05:41;95284.81;;;5.28;100.00
740;BME280;354;42.694;23.336;2023-03-03T01:08:07;95277.81;;;5.29;100.00
740;BME280;354;42.694;23.336;2023-03-03T01:10:36;95284.13;;;5.35;100.00
740;BME280;354;42.694;23.336;2023-03-03T01:13:04;95288.16;;;5.37;100.00
740;BME280;354;42.694;23.336;2023-03-03T01:15:30;95280.16;;;5.39;100.00
740;BME280;354;42.694;23.336;2023-03-03T01:17:56;95282.03;;;5.30;100.00
740;BME280;354;42.694;23.336;2023-03-03T01:20:21;95281.81;;;5.17;100.00
740;BME280;354;42.694;23.336;2023-03-03T01:22:47;95289.66;;;5.17;100.00
740;BME280;354;42.694;23.336;2023-03-03T01:25:13;95246.84;;;4.88;100.00
740;BME280;354;42.694;23.336;2023-03-03T01:27:38;95284.03;;;5.05;100.00
740;BME280;354;42.694;23.336;2023-03-03T01:30:05;95258.50;;;5.00;100.00
740;BME280;354;42.694;23.336;2023-03-03T01:32:31;95279.75;;;5.12;100.00
740;BME280;354;42.694;23.336;2023-03-03T01:34:57;95284.25;;;5.18;100.00
740;BME280;354;42.694;23.336;2023-03-03T01:37:22;95279.66;;;5.20;100.00
740;BME280;354;42.694;23.336;2023-03-03T01:39:49;95274.28;;;5.22;100.00
740;BME280;354;42.694;23.336;2023-03-03T01:42:15;95268.72;;;5.25;100.00
740;BME280;354;42.694;23.336;2023-03-03T01:44:40;95282.38;;;5.27;100.00
740;BME280;354;42.694;23.336;2023-03-03T01:47:10;95267.97;;;5.16;100.00
740;BME280;354;42.694;23.336;2023-03-03T01:52:17;95273.97;;;5.02;100.00
740;BME280;354;42.694;23.336;2023-03-03T01:54:50;95280.28;;;4.85;100.00
740;BME280;354;42.694;23.336;2023-03-03T01:57:22;95281.13;;;4.77;100.00
740;BME280;354;42.694;23.336;2023-03-03T01:59:49;95277.09;;;4.74;100.00
740;BME280;354;42.694;23.336;2023-03-03T02:02:16;95272.00;;;4.81;100.00
740;BME280;354;42.694;23.336;2023-03-03T02:04:42;95269.09;;;4.76;100.00
740;BME280;354;42.694;23.336;2023-03-03T02:07:09;95281.78;;;4.79;100.00
740;BME280;354;42.694;23.336;2023-03-03T02:09:58;95271.88;;;4.74;100.00
740;BME280;354;42.694;23.336;2023-03-03T02:12:37;95276.91;;;4.76;100.00
740;BME280;354;42.694;23.336;2023-03-03T02:17:40;95262.47;;;4.88;100.00
740;BME280;354;42.694;23.336;2023-03-03T02:20:13;95266.19;;;4.94;100.00
740;BME280;354;42.694;23.336;2023-03-03T02:23:30;95271.69;;;4.99;100.00
740;BME280;354;42.694;23.336;2023-03-03T02:26:06;95272.56;;;4.91;100.00
740;BME280;354;42.694;23.336;2023-03-03T02:28:32;95267.00;;;4.94;100.00
740;BME280;354;42.694;23.336;2023-03-03T02:31:00;95263.13;;;4.90;100.00
740;BME280;354;42.694;23.336;2023-03-03T02:33:26;95270.66;;;4.85;100.00
740;BME280;354;42.694;23.336;2023-03-03T02:35:52;95266.09;;;4.87;100.00
740;BME280;354;42.694;23.336;2023-03-03T02:41:02;95264.84;;;4.98;100.00
740;BME280;354;42.694;23.336;2023-03-03T02:43:35;95264.84;;;4.98;100.00
740;BME280;354;42.694;23.336;2023-03-03T02:46:03;95250.22;;;4.97;100.00
740;BME280;354;42.694;23.336;2023-03-03T02:48:29;95259.31;;;5.01;100.00
740;BME280;354;42.694;23.336;2023-03-03T02:50:54;95265.72;;;5.13;100.00
740;BME280;354;42.694;23.336;2023-03-03T02:53:20;95269.06;;;5.22;100.00
740;BME280;354;42.694;23.336;2023-03-03T02:55:45;95257.44;;;5.10;100.00
740;BME280;354;42.694;23.336;2023-03-03T02:58:10;95266.75;;;5.04;100.00
740;BME280;354;42.694;23.336;2023-03-03T03:00:36;95269.31;;;5.12;100.00
740;BME280;354;42.694;23.336;2023-03-03T03:03:01;95246.72;;;5.05;100.00
740;BME280;354;42.694;23.336;2023-03-03T03:05:26;95242.69;;;5.02;100.00
740;BME280;354;42.694;23.336;2023-03-03T03:07:53;95238.28;;;5.02;100.00
740;BME280;354;42.694;23.336;2023-03-03T03:10:18;95253.38;;;5.07;100.00
740;BME280;354;42.694;23.336;2023-03-03T03:12:43;95243.28;;;4.89;100.00
740;BME280;354;42.694;23.336;2023-03-03T03:15:09;95248.00;;;5.09;100.00
740;BME280;354;42.694;23.336;2023-03-03T03:17:37;95254.59;;;5.19;100.00
740;BME280;354;42.694;23.336;2023-03-03T03:20:02;95244.84;;;5.13;100.00
740;BME280;354;42.694;23.336;2023-03-03T03:22:28;95254.28;;;5.14;100.00
740;BME280;354;42.694;23.336;2023-03-03T03:24:53;95252.28;;;5.01;100.00
740;BME280;354;42.694;23.336;2023-03-03T03:27:19;95256.00;;;5.07;100.00
740;BME280;354;42.694;23.336;2023-03-03T03:29:44;95248.94;;;4.93;100.00
740;BME280;354;42.694;23.336;2023-03-03T03:32:10;95255.34;;;5.05;100.00
740;BME280;354;42.694;23.336;2023-03-03T03:34:36;95257.47;;;4.87;100.00
740;BME280;354;42.694;23.336;2023-03-03T03:37:02;95249.06;;;4.76;100.00
740;BME280;354;42.694;23.336;2023-03-03T03:39:27;95236.69;;;4.79;100.00
740;BME280;354;42.694;23.336;2023-03-03T03:41:53;95250.53;;;4.94;100.00
740;BME280;354;42.694;23.336;2023-03-03T03:44:18;95244.00;;;4.98;100.00
740;BME280;354;42.694;23.336;2023-03-03T03:46:43;95251.91;;;4.90;100.00
740;BME280;354;42.694;23.336;2023-03-03T03:49:09;95234.47;;;4.90;100.00
740;BME280;354;42.694;23.336;2023-03-03T03:51:34;95245.59;;;4.84;100.00
740;BME280;354;42.694;23.336;2023-03-03T03:54:02;95243.69;;;4.78;100.00
740;BME280;354;42.694;23.336;2023-03-03T03:56:27;95239.09;;;4.80;100.00
740;BME280;354;42.694;23.336;2023-03-03T03:58:53;95237.72;;;4.69;100.00
740;BME280;354;42.694;23.336;2023-03-03T04:01:18;95240.00;;;4.72;100.00
740;BME280;354;42.694;23.336;2023-03-03T04:03:43;95239.81;;;4.74;100.00
740;BME280;354;42.694;23.336;2023-03-03T04:06:09;95226.84;;;4.66;100.00
740;BME280;354;42.694;23.336;2023-03-03T04:08:34;95234.50;;;4.67;100.00
740;BME280;354;42.694;23.336;2023-03-03T04:11:00;95213.88;;;4.58;100.00
740;BME280;354;42.694;23.336;2023-03-03T04:13:25;95234.66;;;4.66;100.00
740;BME280;354;42.694;23.336;2023-03-03T04:15:53;95245.06;;;4.66;100.00
740;BME280;354;42.694;23.336;2023-03-03T04:18:18;95238.53;;;4.70;100.00
740;BME280;354;42.694;23.336;2023-03-03T04:20:44;95213.63;;;4.44;100.00
740;BME280;354;42.694;23.336;2023-03-03T04:23:09;95239.44;;;4.54;100.00
740;BME280;354;42.694;23.336;2023-03-03T04:25:34;95240.91;;;4.57;100.00
740;BME280;354;42.694;23.336;2023-03-03T04:28:00;95240.66;;;4.66;100.00
740;BME280;354;42.694;23.336;2023-03-03T04:30:25;95208.59;;;4.43;100.00
740;BME280;354;42.694;23.336;2023-03-03T04:32:51;95217.34;;;4.50;100.00
740;BME280;354;42.694;23.336;2023-03-03T04:35:17;95236.16;;;4.60;100.00
740;BME280;354;42.694;23.336;2023-03-03T04:37:43;95236.63;;;4.64;100.00
740;BME280;354;42.694;23.336;2023-03-03T04:40:09;95241.22;;;4.62;100.00
740;BME280;354;42.694;23.336;2023-03-03T04:42:35;95242.94;;;4.69;100.00
740;BME280;354;42.694;23.336;2023-03-03T04:45:00;95249.28;;;4.67;100.00
740;BME280;354;42.694;23.336;2023-03-03T04:47:26;95244.06;;;4.67;100.00
740;BME280;354;42.694;23.336;2023-03-03T04:49:51;95234.59;;;4.51;100.00
740;BME280;354;42.694;23.336;2023-03-03T04:52:17;95217.69;;;4.47;100.00
740;BME280;354;42.694;23.336;2023-03-03T04:54:42;95220.94;;;4.49;100.00
740;BME280;354;42.694;23.336;2023-03-03T04:57:08;95239.69;;;4.67;100.00
740;BME280;354;42.694;23.336;2023-03-03T04:59:34;95221.03;;;4.56;100.00
740;BME280;354;42.694;23.336;2023-03-03T05:01:59;95243.44;;;4.65;100.00
740;BME280;354;42.694;23.336;2023-03-03T05:04:24;95245.59;;;4.61;100.00
740;BME280;354;42.694;23.336;2023-03-03T05:06:50;95249.13;;;4.68;100.00
740;BME280;354;42.694;23.336;2023-03-03T05:09:15;95243.44;;;4.65;100.00
740;BME280;354;42.694;23.336;2023-03-03T05:11:41;95245.25;;;4.64;100.00
740;BME280;354;42.694;23.336;2023-03-03T05:14:07;95243.22;;;4.74;100.00
740;BME280;354;42.694;23.336;2023-03-03T05:16:32;95254.25;;;4.99;100.00
740;BME280;354;42.694;23.336;2023-03-03T05:18:58;95257.94;;;5.05;100.00
740;BME280;354;42.694;23.336;2023-03-03T05:21:23;95251.22;;;5.11;100.00
740;BME280;354;42.694;23.336;2023-03-03T05:23:49;95250.69;;;5.00;100.00
740;BME280;354;42.694;23.336;2023-03-03T05:26:14;95253.66;;;5.12;100.00
740;BME280;354;42.694;23.336;2023-03-03T05:28:40;95255.25;;;4.98;100.00
740;BME280;354;42.694;23.336;2023-03-03T05:31:05;95253.44;;;4.99;100.00
740;BME280;354;42.694;23.336;2023-03-03T05:33:30;95256.41;;;4.96;100.00
740;BME280;354;42.694;23.336;2023-03-03T05:35:56;95252.47;;;5.00;100.00
740;BME280;354;42.694;23.336;2023-03-03T05:38:23;95256.53;;;5.02;100.00
740;BME280;354;42.694;23.336;2023-03-03T05:40:49;95253.44;;;5.22;100.00
740;BME280;354;42.694;23.336;2023-03-03T05:43:14;95217.59;;;5.01;100.00
740;BME280;354;42.694;23.336;2023-03-03T05:45:40;95264.06;;;5.35;100.00
740;BME280;354;42.694;23.336;2023-03-03T05:48:05;95261.06;;;5.38;100.00
740;BME280;354;42.694;23.336;2023-03-03T05:50:31;95261.81;;;5.47;100.00
740;BME280;354;42.694;23.336;2023-03-03T05:52:57;95261.91;;;5.53;100.00
740;BME280;354;42.694;23.336;2023-03-03T05:55:23;95263.00;;;5.59;100.00
740;BME280;354;42.694;23.336;2023-03-03T05:57:48;95265.31;;;5.54;100.00
740;BME280;354;42.694;23.336;2023-03-03T06:00:14;95254.88;;;5.54;100.00
740;BME280;354;42.694;23.336;2023-03-03T06:02:41;95235.28;;;5.58;100.00
740;BME280;354;42.694;23.336;2023-03-03T06:05:07;95258.50;;;5.68;100.00
740;BME280;354;42.694;23.336;2023-03-03T06:07:33;95252.91;;;5.86;100.00
740;BME280;354;42.694;23.336;2023-03-03T06:09:59;95248.88;;;5.83;100.00
740;BME280;354;42.694;23.336;2023-03-03T06:12:24;95254.47;;;5.95;100.00
740;BME280;354;42.694;23.336;2023-03-03T06:14:50;95250.88;;;5.96;100.00
740;BME280;354;42.694;23.336;2023-03-03T06:17:15;95251.88;;;5.95;100.00
740;BME280;354;42.694;23.336;2023-03-03T06:19:41;95263.81;;;6.04;100.00
740;BME280;354;42.694;23.336;2023-03-03T06:22:07;95239.63;;;5.95;100.00
740;BME280;354;42.694;23.336;2023-03-03T06:24:33;95258.34;;;5.99;100.00
740;BME280;354;42.694;23.336;2023-03-03T06:26:59;95266.16;;;6.14;100.00
740;BME280;354;42.694;23.336;2023-03-03T06:29:25;95270.94;;;6.10;100.00
740;BME280;354;42.694;23.336;2023-03-03T06:31:51;95266.41;;;6.19;100.00
740;BME280;354;42.694;23.336;2023-03-03T06:34:17;95263.47;;;6.07;100.00
740;BME280;354;42.694;23.336;2023-03-03T06:36:42;95258.09;;;5.94;100.00
740;BME280;354;42.694;23.336;2023-03-03T06:39:07;95265.47;;;6.05;100.00
740;BME280;354;42.694;23.336;2023-03-03T06:41:33;95268.06;;;6.05;100.00
740;BME280;354;42.694;23.336;2023-03-03T06:43:58;95265.53;;;6.12;100.00
740;BME280;354;42.694;23.336;2023-03-03T06:46:25;95277.06;;;6.17;100.00
740;BME280;354;42.694;23.336;2023-03-03T06:48:50;95271.31;;;6.07;100.00
740;BME280;354;42.694;23.336;2023-03-03T06:51:33;95265.63;;;6.03;100.00
740;BME280;354;42.694;23.336;2023-03-03T06:54:02;95268.22;;;6.03;100.00
740;BME280;354;42.694;23.336;2023-03-03T06:56:34;95274.16;;;6.27;100.00
740;BME280;354;42.694;23.336;2023-03-03T06:59:00;95270.22;;;6.16;100.00
740;BME280;354;42.694;23.336;2023-03-03T07:01:30;95273.09;;;6.21;100.00
740;BME280;354;42.694;23.336;2023-03-03T07:03:59;95278.00;;;6.31;100.00
740;BME280;354;42.694;23.336;2023-03-03T07:06:25;95277.63;;;6.49;100.00
740;BME280;354;42.694;23.336;2023-03-03T07:08:53;95274.53;;;6.60;100.00
740;BME280;354;42.694;23.336;2023-03-03T07:11:21;95280.25;;;6.70;100.00
740;BME280;354;42.694;23.336;2023-03-03T07:13:49;95266.56;;;6.68;100.00
740;BME280;354;42.694;23.336;2023-03-03T07:16:16;95270.53;;;6.64;100.00
740;BME280;354;42.694;23.336;2023-03-03T07:18:51;95269.94;;;6.83;100.00
740;BME280;354;42.694;23.336;2023-03-03T07:23:51;95272.75;;;6.82;100.00
740;BME280;354;42.694;23.336;2023-03-03T07:26:23;95242.72;;;6.56;100.00
740;BME280;354;42.694;23.336;2023-03-03T07:28:55;95269.50;;;6.80;100.00
740;BME280;354;42.694;23.336;2023-03-03T07:31:35;95270.81;;;6.91;100.00
740;BME280;354;42.694;23.336;2023-03-03T07:34:04;95278.91;;;6.96;100.00
740;BME280;354;42.694;23.336;2023-03-03T07:36:39;95266.06;;;7.01;100.00
740;BME280;354;42.694;23.336;2023-03-03T07:41:57;95267.31;;;7.05;100.00
740;BME280;354;42.694;23.336;2023-03-03T07:44:33;95263.94;;;7.11;100.00
740;BME280;354;42.694;23.336;2023-03-03T07:47:13;95259.28;;;7.06;100.00
740;BME280;354;42.694;23.336;2023-03-03T07:49:41;95260.34;;;7.12;100.00
740;BME280;354;42.694;23.336;2023-03-03T07:52:23;95259.44;;;7.26;100.00
740;BME280;354;42.694;23.336;2023-03-03T07:54:50;95250.97;;;7.24;100.00
740;BME280;354;42.694;23.336;2023-03-03T07:59:53;95253.13;;;7.42;100.00
740;BME280;354;42.694;23.336;2023-03-03T08:04:53;95244.38;;;7.28;100.00
740;BME280;354;42.694;23.336;2023-03-03T08:07:21;95244.25;;;7.36;100.00
740;BME280;354;42.694;23.336;2023-03-03T08:10:22;95243.03;;;7.39;100.00
740;BME280;354;42.694;23.336;2023-03-03T08:12:51;95246.41;;;7.61;100.00
740;BME280;354;42.694;23.336;2023-03-03T08:15:18;95251.06;;;7.65;100.00
740;BME280;354;42.694;23.336;2023-03-03T08:17:45;95252.47;;;7.68;100.00
740;BME280;354;42.694;23.336;2023-03-03T08:22:58;95249.22;;;7.59;100.00
740;BME280;354;42.694;23.336;2023-03-03T08:25:24;95242.53;;;7.57;100.00
740;BME280;354;42.694;23.336;2023-03-03T08:27:49;95246.75;;;7.51;100.00
740;BME280;354;42.694;23.336;2023-03-03T08:30:14;95244.38;;;7.63;100.00
740;BME280;354;42.694;23.336;2023-03-03T08:32:40;95244.06;;;7.73;100.00
740;BME280;354;42.694;23.336;2023-03-03T08:35:05;95244.63;;;7.68;100.00
740;BME280;354;42.694;23.336;2023-03-03T08:37:31;95235.56;;;7.64;100.00
740;BME280;354;42.694;23.336;2023-03-03T08:39:56;95233.53;;;7.59;100.00
740;BME280;354;42.694;23.336;2023-03-03T08:42:22;95235.16;;;7.67;100.00
740;BME280;354;42.694;23.336;2023-03-03T08:44:47;95236.78;;;7.68;100.00
740;BME280;354;42.694;23.336;2023-03-03T08:47:12;95235.41;;;7.72;100.00
740;BME280;354;42.694;23.336;2023-03-03T08:49:38;95233.25;;;7.48;100.00
740;BME280;354;42.694;23.336;2023-03-03T08:52:04;95243.56;;;7.56;100.00
740;BME280;354;42.694;23.336;2023-03-03T08:54:29;95219.25;;;7.69;100.00
740;BME280;354;42.694;23.336;2023-03-03T08:56:55;95237.91;;;7.87;100.00
740;BME280;354;42.694;23.336;2023-03-03T08:59:20;95228.63;;;7.91;100.00
740;BME280;354;42.694;23.336;2023-03-03T09:01:46;95233.72;;;7.99;100.00
740;BME280;354;42.694;23.336;2023-03-03T09:04:11;95239.00;;;8.12;100.00
740;BME280;354;42.694;23.336;2023-03-03T09:06:37;95244.34;;;8.32;100.00
740;BME280;354;42.694;23.336;2023-03-03T09:09:03;95236.75;;;8.44;100.00
740;BME280;354;42.694;23.336;2023-03-03T09:11:29;95235.16;;;8.50;100.00
740;BME280;354;42.694;23.336;2023-03-03T09:14:15;95220.47;;;8.68;100.00
740;BME280;354;42.694;23.336;2023-03-03T09:16:48;95236.44;;;8.74;100.00
740;BME280;354;42.694;23.336;2023-03-03T09:19:31;95230.81;;;9.10;100.00
740;BME280;354;42.694;23.336;2023-03-03T09:22:02;95231.22;;;9.20;100.00
740;BME280;354;42.694;23.336;2023-03-03T09:24:35;95221.50;;;9.34;100.00
740;BME280;354;42.694;23.336;2023-03-03T09:27:01;95212.25;;;9.24;100.00
740;BME280;354;42.694;23.336;2023-03-03T09:29:34;95226.94;;;9.59;100.00
740;BME280;354;42.694;23.336;2023-03-03T09:32:20;95219.00;;;9.85;100.00
740;BME280;354;42.694;23.336;2023-03-03T09:34:46;95224.03;;;9.93;100.00
740;BME280;354;42.694;23.336;2023-03-03T09:37:31;95227.06;;;9.97;100.00
740;BME280;354;42.694;23.336;2023-03-03T09:40:01;95225.91;;;9.60;100.00
740;BME280;354;42.694;23.336;2023-03-03T09:42:42;95229.50;;;9.85;100.00
740;BME280;354;42.694;23.336;2023-03-03T09:47:53;95215.63;;;9.58;100.00
740;BME280;354;42.694;23.336;2023-03-03T09:50:47;95225.13;;;9.53;100.00
740;BME280;354;42.694;23.336;2023-03-03T10:09:37;95220.91;;;9.25;100.00
740;BME280;354;42.694;23.336;2023-03-03T10:12:24;95216.84;;;9.42;100.00
740;BME280;354;42.694;23.336;2023-03-03T10:17:52;95204.75;;;9.41;100.00
740;BME280;354;42.694;23.336;2023-03-03T10:25:39;95197.06;;;8.54;100.00
740;BME280;354;42.694;23.336;2023-03-03T10:28:18;95212.22;;;8.85;100.00
740;BME280;354;42.694;23.336;2023-03-03T10:31:01;95206.56;;;8.81;100.00
740;BME280;354;42.694;23.336;2023-03-03T10:41:42;95199.72;;;8.93;100.00
740;BME280;354;42.694;23.336;2023-03-03T11:06:28;95184.09;;;8.39;100.00
740;BME280;354;42.694;23.336;2023-03-03T11:09:55;95176.88;;;8.41;100.00
740;BME280;354;42.694;23.336;2023-03-03T11:11:59;95175.06;;;8.61;100.00
740;BME280;354;42.694;23.336;2023-03-03T11:17:20;95149.41;;;8.30;100.00
740;BME280;354;42.694;23.336;2023-03-03T11:20:02;95177.91;;;8.60;100.00
740;BME280;354;42.694;23.336;2023-03-03T11:25:26;95156.94;;;8.66;100.00
740;BME280;354;42.694;23.336;2023-03-03T11:50:13;95159.09;;;7.75;100.00
740;BME280;354;42.694;23.336;2023-03-03T11:55:41;95143.31;;;7.62;100.00
740;BME280;354;42.694;23.336;2023-03-03T12:00:53;95158.44;;;7.25;100.00
740;BME280;354;42.694;23.336;2023-03-03T12:03:44;95148.16;;;7.30;100.00
740;BME280;354;42.694;23.336;2023-03-03T12:06:23;95154.41;;;7.29;100.00
740;BME280;354;42.694;23.336;2023-03-03T12:12:05;95156.94;;;7.16;100.00
740;BME280;354;42.694;23.336;2023-03-03T12:17:15;95160.03;;;7.26;100.00
740;BME280;354;42.694;23.336;2023-03-03T12:19:57;95161.72;;;7.40;100.00
740;BME280;354;42.694;23.336;2023-03-03T12:22:37;95150.41;;;7.33;100.00
740;BME280;354;42.694;23.336;2023-03-03T12:25:20;95160.09;;;7.39;100.00
740;BME280;354;42.694;23.336;2023-03-03T12:27:53;95148.25;;;7.44;100.00
740;BME280;354;42.694;23.336;2023-03-03T12:36:31;95162.66;;;7.26;100.00
740;BME280;354;42.694;23.336;2023-03-03T12:39:01;95160.84;;;7.27;100.00
740;BME280;354;42.694;23.336;2023-03-03T12:41:38;95163.28;;;7.00;100.00
740;BME280;354;42.694;23.336;2023-03-03T12:47:05;95175.38;;;6.80;100.00
740;BME280;354;42.694;23.336;2023-03-03T12:58:14;95179.38;;;5.97;100.00
740;BME280;354;42.694;23.336;2023-03-03T13:03:16;95183.44;;;5.99;100.00
740;BME280;354;42.694;23.336;2023-03-03T13:05:57;95179.38;;;5.82;100.00
740;BME280;354;42.694;23.336;2023-03-03T13:11:24;95177.63;;;5.68;100.00
740;BME280;354;42.694;23.336;2023-03-03T13:14:22;95180.56;;;5.79;100.00
740;BME280;354;42.694;23.336;2023-03-03T13:17:04;95180.38;;;5.96;100.00
740;BME280;354;42.694;23.336;2023-03-03T13:19:42;95176.53;;;5.92;100.00
740;BME280;354;42.694;23.336;2023-03-03T13:22:12;95168.94;;;5.97;100.00
740;BME280;354;42.694;23.336;2023-03-03T13:25:05;95180.69;;;6.22;100.00
740;BME280;354;42.694;23.336;2023-03-03T13:27:40;95180.13;;;6.27;100.00
740;BME280;354;42.694;23.336;2023-03-03T13:30:20;95173.13;;;6.49;100.00
740;BME280;354;42.694;23.336;2023-03-03T13:32:56;95177.19;;;7.07;100.00
740;BME280;354;42.694;23.336;2023-03-03T13:38:20;95175.13;;;7.59;100.00
740;BME280;354;42.694;23.336;2023-03-03T13:40:56;95155.03;;;7.66;100.00
740;BME280;354;42.694;23.336;2023-03-03T13:43:29;95171.81;;;7.44;100.00
740;BME280;354;42.694;23.336;2023-03-03T13:47:20;95161.56;;;7.14;100.00
740;BME280;354;42.694;23.336;2023-03-03T13:52:04;95157.13;;;6.86;100.00
740;BME280;354;42.694;23.336;2023-03-03T14:00:03;95166.69;;;6.73;100.00
740;BME280;354;42.694;23.336;2023-03-03T14:05:51;95163.47;;;6.99;100.00
740;BME280;354;42.694;23.336;2023-03-03T14:08:59;95155.94;;;7.17;100.00
740;BME280;354;42.694;23.336;2023-03-03T14:11:59;95162.94;;;7.10;100.00
740;BME280;354;42.694;23.336;2023-03-03T14:14:49;95157.97;;;7.15;100.00
740;BME280;354;42.694;23.336;2023-03-03T14:17:25;95163.19;;;7.15;100.00
740;BME280;354;42.694;23.336;2023-03-03T14:22:54;95146.47;;;7.09;100.00
740;BME280;354;42.694;23.336;2023-03-03T14:25:20;95150.28;;;7.13;100.00
740;BME280;354;42.694;23.336;2023-03-03T14:35:35;95144.75;;;6.95;100.00
740;BME280;354;42.694;23.336;2023-03-03T14:40:35;95145.22;;;7.05;100.00
740;BME280;354;42.694;23.336;2023-03-03T14:43:17;95137.94;;;7.01;100.00
740;BME280;354;42.694;23.336;2023-03-03T14:45:44;95123.63;;;6.97;100.00
740;BME280;354;42.694;23.336;2023-03-03T14:48:13;95133.72;;;7.00;100.00
740;BME280;354;42.694;23.336;2023-03-03T14:50:41;95146.91;;;7.20;100.00
740;BME280;354;42.694;23.336;2023-03-03T14:53:13;95133.47;;;7.29;100.00
740;BME280;354;42.694;23.336;2023-03-03T14:55:41;95129.50;;;7.33;100.00
740;BME280;354;42.694;23.336;2023-03-03T14:58:24;95130.88;;;7.29;100.00
740;BME280;354;42.694;23.336;2023-03-03T15:00:50;95126.41;;;7.23;100.00
740;BME280;354;42.694;23.336;2023-03-03T15:03:26;95126.31;;;7.45;100.00
740;BME280;354;42.694;23.336;2023-03-03T15:05:54;95122.47;;;7.40;100.00
740;BME280;354;42.694;23.336;2023-03-03T15:08:40;95133.63;;;7.56;100.00
740;BME280;354;42.694;23.336;2023-03-03T15:13:38;95136.22;;;7.49;100.00
740;BME280;354;42.694;23.336;2023-03-03T15:16:09;95119.06;;;7.47;100.00
740;BME280;354;42.694;23.336;2023-03-03T15:18:54;95133.16;;;7.46;100.00
740;BME280;354;42.694;23.336;2023-03-03T15:21:29;95137.25;;;7.55;100.00
740;BME280;354;42.694;23.336;2023-03-03T15:24:13;95130.78;;;7.51;100.00
740;BME280;354;42.694;23.336;2023-03-03T15:26:46;95128.38;;;7.56;100.00
740;BME280;354;42.694;23.336;2023-03-03T15:32:23;95125.09;;;7.40;100.00
740;BME280;354;42.694;23.336;2023-03-03T15:38:26;95139.13;;;6.98;100.00
740;BME280;354;42.694;23.336;2023-03-03T15:40:40;95142.94;;;6.96;100.00
740;BME280;354;42.694;23.336;2023-03-03T15:43:21;95137.66;;;6.89;100.00
740;BME280;354;42.694;23.336;2023-03-03T15:45:49;95136.84;;;6.89;100.00
740;BME280;354;42.694;23.336;2023-03-03T15:48:39;95141.59;;;6.78;100.00
740;BME280;354;42.694;23.336;2023-03-03T16:04:28;95113.13;;;6.62;100.00
740;BME280;354;42.694;23.336;2023-03-03T16:15:36;95169.66;;;6.70;100.00
740;BME280;354;42.694;23.336;2023-03-03T16:20:56;95164.13;;;6.58;100.00
740;BME280;354;42.694;23.336;2023-03-03T16:23:47;95179.75;;;6.73;100.00
740;BME280;354;42.694;23.336;2023-03-03T16:37:14;95164.69;;;7.03;100.00
740;BME280;354;42.694;23.336;2023-03-03T16:40:02;95178.72;;;6.95;100.00
740;BME280;354;42.694;23.336;2023-03-03T16:42:33;95162.16;;;6.81;100.00
740;BME280;354;42.694;23.336;2023-03-03T16:45:19;95185.28;;;6.84;100.00
740;BME280;354;42.694;23.336;2023-03-03T17:01:38;95212.53;;;6.97;100.00
740;BME280;354;42.694;23.336;2023-03-03T17:10:22;95211.63;;;6.83;100.00
740;BME280;354;42.694;23.336;2023-03-03T17:13:42;95210.09;;;6.95;100.00
740;BME280;354;42.694;23.336;2023-03-03T17:20:55;95214.91;;;6.92;100.00
740;BME280;354;42.694;23.336;2023-03-03T17:23:26;95217.13;;;6.95;100.00
740;BME280;354;42.694;23.336;2023-03-03T17:26:29;95220.56;;;6.74;100.00
740;BME280;354;42.694;23.336;2023-03-03T17:43:21;95238.97;;;7.08;100.00
740;BME280;354;42.694;23.336;2023-03-03T17:45:50;95238.66;;;7.18;100.00
740;BME280;354;42.694;23.336;2023-03-03T18:10:12;95259.81;;;7.23;100.00
740;BME280;354;42.694;23.336;2023-03-03T18:26:50;95275.16;;;7.05;100.00
740;BME280;354;42.694;23.336;2023-03-03T18:29:21;95276.03;;;7.12;100.00
740;BME280;354;42.694;23.336;2023-03-03T18:36:57;95271.00;;;7.10;100.00
740;BME280;354;42.694;23.336;2023-03-03T18:39:42;95281.25;;;7.12;100.00
740;BME280;354;42.694;23.336;2023-03-03T18:44:47;95276.47;;;6.94;100.00
740;BME280;354;42.694;23.336;2023-03-03T18:47:12;95291.06;;;7.03;100.00
740;BME280;354;42.694;23.336;2023-03-03T18:52:22;95267.31;;;6.83;100.00
740;BME280;354;42.694;23.336;2023-03-03T18:55:21;95272.81;;;6.89;100.00
740;BME280;354;42.694;23.336;2023-03-03T19:00:55;95307.66;;;7.17;100.00
740;BME280;354;42.694;23.336;2023-03-03T19:06:01;95309.81;;;7.35;100.00